Allbright, Missouri
Current Conditions -  °F | °C
As of 3:15 AM on Monday 24 Nov 2014 (Local Time) from KFAM Reporting Station
Overcast Overcast  
Wind Chill: 38°   Ceiling: 1400
Heat Index: 45°   Visibility: 10mi
Dew Point: 39°   Wind: 15mph
Humidity: 81%   Direction: 300°WNW
Pressure: 29.36"   Gusts: 26mph
Location:  37.4061°N, 90.1985°W
Report Text: KFAM 240915Z AUTO 30013G23KT 10SM BKN014 OVC022 07/04 A2936 RMK AO1
Loading
Personal Weather Stations






























Interactive Weather Map New forecast layout! Learn more

10-Day Weather Forecast

Advertisements
Track Severe Weather on mobile